Time;durP1;ratioP1;P1;durP2;ratioP2;P2;SDS_P1;SDS_P2;PMS_P1;PMS_P2;Temp;Humidity;BMP_temperature;BMP_pressure;BME280_temperature;BME280_humidity;BME280_pressure;Samples;Min_cycle;Max_cycle;Signal;HPM_P1;HPM_P2
2022/12/03 00:00:06;;;;;;;;;;;;;;;1.91;100.00;102382.66;2079302;28;42635;-75
2022/12/03 00:01:13;;;;;;;;;;;;;;;1.91;100.00;102386.19;2092451;28;28694;-77
2022/12/03 00:02:14;;;;;;;;;;;;;;;1.91;100.00;102394.13;2088462;28;20663;-77
2022/12/03 00:03:16;;;;;;;;;;;;;;;1.93;100.00;102391.53;2087296;28;32812;-77
2022/12/03 00:04:18;;;;;;;;;;;;;;;1.94;100.00;102387.16;2096039;28;31860;-76
2022/12/03 00:05:19;;;;;;;;;;;;;;;1.94;100.00;102381.88;2087311;28;30892;-76
2022/12/03 00:06:21;;;;;;;;;;;;;;;1.94;100.00;102392.44;2086596;28;38367;-74
2022/12/03 00:07:22;;;;;;;;;;;;;;;1.96;100.00;102390.78;2087719;28;37375;-76
2022/12/03 00:08:24;;;;;;;;;;;;;;;1.95;100.00;102387.22;2097306;28;20790;-76
2022/12/03 00:09:25;;;;;;;;;;;;;;;1.95;100.00;102384.56;2096425;28;32396;-76
2022/12/03 00:10:27;;;;;;;;;;;;;;;1.97;100.00;102387.25;2087332;28;30543;-76
2022/12/03 00:11:29;;;;;;;;;;;;;;;1.96;100.00;102380.22;2087704;28;31730;-76
2022/12/03 00:12:30;;;;;;;;;;;;;;;1.97;100.00;102384.63;2096226;28;38373;-76
2022/12/03 00:13:32;;;;;;;;;;;;;;;1.98;100.00;102381.16;2095925;28;36910;-76
2022/12/03 00:14:33;;;;;;;;;;;;;;;1.97;100.00;102379.34;2096748;28;38068;-76
2022/12/03 00:15:37;;;;;;;;;;;;;;;1.96;100.00;102377.56;2096591;28;31299;-76
2022/12/03 00:16:38;;;;;;;;;;;;;;;1.97;100.00;102376.69;2096786;28;34716;-76
2022/12/03 00:17:40;;;;;;;;;;;;;;;1.96;100.00;102377.56;2096720;28;32890;-76
2022/12/03 00:18:42;;;;;;;;;;;;;;;1.97;100.00;102376.69;2097125;28;20726;-76
2022/12/03 00:19:45;;;;;;;;;;;;;;;1.97;100.00;102380.22;2096721;28;31711;-76
2022/12/03 00:20:47;;;;;;;;;;;;;;;1.98;100.00;102394.34;2096719;28;19925;-76
2022/12/03 00:21:51;;;;;;;;;;;;;;;1.99;100.00;102389.13;2095272;28;29565;-76
2022/12/03 00:22:52;;;;;;;;;;;;;;;1.98;100.00;102378.50;2096137;28;35037;-76
2022/12/03 00:23:56;;;;;;;;;;;;;;;1.98;100.00;102379.41;2096947;28;19925;-76
2022/12/03 00:24:58;;;;;;;;;;;;;;;1.99;100.00;102377.66;2087293;28;37691;-76
2022/12/03 00:26:03;;;;;;;;;;;;;;;1.98;100.00;102384.69;2088262;28;19936;-76
2022/12/03 00:27:04;;;;;;;;;;;;;;;1.99;100.00;102386.50;2095817;28;19924;-76
2022/12/03 00:28:06;;;;;;;;;;;;;;;1.99;100.00;102385.56;2095795;28;25752;-75
2022/12/03 00:29:08;;;;;;;;;;;;;;;1.99;100.00;102385.56;2096250;28;20367;-76
2022/12/03 00:30:10;;;;;;;;;;;;;;;1.98;100.00;102384.69;2096881;28;33065;-75
2022/12/03 00:31:12;;;;;;;;;;;;;;;1.99;100.00;102390.84;2087250;28;29760;-76
2022/12/03 00:32:13;;;;;;;;;;;;;;;1.97;100.00;102380.22;2087940;28;19929;-76
2022/12/03 00:33:15;;;;;;;;;;;;;;;1.97;100.00;102382.88;2096514;28;33839;-77
2022/12/03 00:34:16;;;;;;;;;;;;;;;1.98;100.00;102383.78;2096313;28;32881;-75
2022/12/03 00:35:18;;;;;;;;;;;;;;;1.98;100.00;102383.78;2096599;28;33832;-76
2022/12/03 00:36:19;;;;;;;;;;;;;;;2.00;100.00;102387.38;2096302;28;36768;-76
2022/12/03 00:37:21;;;;;;;;;;;;;;;1.99;100.00;102388.22;2097182;28;19928;-76
2022/12/03 00:38:23;;;;;;;;;;;;;;;1.98;100.00;102381.16;2095500;28;19925;-75
2022/12/03 00:39:24;;;;;;;;;;;;;;;1.98;100.00;102383.78;2097889;28;38457;-76
2022/12/03 00:40:26;;;;;;;;;;;;;;;1.99;100.00;102393.50;2097851;28;36672;-75
2022/12/03 00:41:27;;;;;;;;;;;;;;;2.00;100.00;102371.53;2097392;28;36789;-76
2022/12/03 00:42:29;;;;;;;;;;;;;;;1.99;100.00;102386.50;2097537;28;39493;-76
2022/12/03 00:43:30;;;;;;;;;;;;;;;1.99;100.00;102381.22;2097905;28;28395;-76
2022/12/03 00:44:32;;;;;;;;;;;;;;;1.99;100.00;102381.22;2098382;28;19929;-75
2022/12/03 00:45:40;;;;;;;;;;;;;;;1.99;100.00;102380.28;2098131;28;19928;-76
2022/12/03 00:46:42;;;;;;;;;;;;;;;2.00;100.00;102390.03;2081599;28;19917;-76
2022/12/03 00:47:44;;;;;;;;;;;;;;;1.99;100.00;102381.22;2081291;28;38146;-76
2022/12/03 00:48:45;;;;;;;;;;;;;;;1.99;100.00;102383.84;2081202;28;36331;-76
2022/12/03 00:49:49;;;;;;;;;;;;;;;2.00;100.00;102380.34;2081325;28;34548;-76
2022/12/03 00:50:51;;;;;;;;;;;;;;;2.00;100.00;102379.47;2081050;28;31189;-76
2022/12/03 00:51:52;;;;;;;;;;;;;;;2.00;100.00;102379.47;2081497;28;37288;-76
2022/12/03 00:52:54;;;;;;;;;;;;;;;1.99;100.00;102373.28;2081243;28;32461;-76
2022/12/03 00:53:55;;;;;;;;;;;;;;;1.99;100.00;102378.56;2087823;28;31280;-76
2022/12/03 00:54:57;;;;;;;;;;;;;;;2.00;100.00;102371.53;2097748;28;29723;-76
2022/12/03 00:56:00;;;;;;;;;;;;;;;1.99;100.00;102370.66;2097955;28;32593;-75
2022/12/03 00:57:02;;;;;;;;;;;;;;;2.00;100.00;102371.53;2097339;28;34973;-77
2022/12/03 00:58:03;;;;;;;;;;;;;;;2.00;100.00;102371.53;2097703;28;36777;-76
2022/12/03 00:59:07;;;;;;;;;;;;;;;1.98;100.00;102366.19;2097711;28;36786;-76
2022/12/03 01:00:09;;;;;;;;;;;;;;;2.00;100.00;102363.63;2098476;28;19928;-76
2022/12/03 01:01:11;;;;;;;;;;;;;;;1.98;100.00;102363.56;2097035;28;35607;-76
2022/12/03 01:02:12;;;;;;;;;;;;;;;1.99;100.00;102369.72;2097504;28;35221;-76
2022/12/03 01:03:14;;;;;;;;;;;;;;;1.99;100.00;102364.44;2097783;28;33944;-76
2022/12/03 01:04:15;;;;;;;;;;;;;;;1.99;100.00;102370.66;2097500;28;39120;-76
2022/12/03 01:05:19;;;;;;;;;;;;;;;1.99;100.00;102372.38;2097151;28;30684;-76
2022/12/03 01:06:23;;;;;;;;;;;;;;;1.99;100.00;102367.09;2096987;28;33613;-76
2022/12/03 01:07:24;;;;;;;;;;;;;;;1.98;100.00;102374.13;2097579;28;38592;-76
2022/12/03 01:08:26;;;;;;;;;;;;;;;1.99;100.00;102375.00;2098370;28;19925;-76
2022/12/03 01:09:28;;;;;;;;;;;;;;;1.99;100.00;102364.44;2097216;28;39681;-76
2022/12/03 01:10:33;;;;;;;;;;;;;;;1.98;100.00;102371.47;2096521;28;39084;-75
2022/12/03 01:11:37;;;;;;;;;;;;;;;1.99;100.00;102369.72;2097456;28;34227;-76
2022/12/03 01:12:41;;;;;;;;;;;;;;;1.97;100.00;102376.69;2097574;28;38899;-76
2022/12/03 01:13:43;;;;;;;;;;;;;;;1.98;100.00;102367.94;2098292;28;19929;-76
2022/12/03 01:14:45;;;;;;;;;;;;;;;1.98;100.00;102378.50;2097660;28;37230;-76
2022/12/03 01:15:47;;;;;;;;;;;;;;;1.98;100.00;102378.50;2097635;28;37031;-76
2022/12/03 01:16:48;;;;;;;;;;;;;;;1.97;100.00;102374.06;2098082;28;19998;-75
2022/12/03 01:17:50;;;;;;;;;;;;;;;1.97;100.00;102374.06;2097778;28;33167;-76
2022/12/03 01:18:51;;;;;;;;;;;;;;;1.95;100.00;102371.34;2097546;28;30704;-76
2022/12/03 01:19:53;;;;;;;;;;;;;;;1.97;100.00;102371.41;2097193;28;37062;-76
2022/12/03 01:20:54;;;;;;;;;;;;;;;1.97;100.00;102376.69;2097961;28;29262;-76
2022/12/03 01:21:56;;;;;;;;;;;;;;;1.98;100.00;102367.94;2097623;28;32523;-75
2022/12/03 01:22:57;;;;;;;;;;;;;;;1.96;100.00;102367.00;2097227;28;36109;-75
2022/12/03 01:23:59;;;;;;;;;;;;;;;1.96;100.00;102370.53;2098042;28;23327;-76
2022/12/03 01:25:03;;;;;;;;;;;;;;;1.96;100.00;102373.16;2097713;28;33099;-77
2022/12/03 01:26:05;;;;;;;;;;;;;;;1.96;100.00;102374.94;2096179;28;33980;-76
2022/12/03 01:27:06;;;;;;;;;;;;;;;1.96;100.00;102372.28;2080238;28;19926;-76
2022/12/03 01:28:08;;;;;;;;;;;;;;;1.95;100.00;102368.72;2072972;28;19930;-76
2022/12/03 01:29:10;;;;;;;;;;;;;;;1.95;100.00;102368.72;2088647;28;32306;-76
2022/12/03 01:30:12;;;;;;;;;;;;;;;1.95;100.00;102378.41;2097601;28;31551;-76
2022/12/03 01:32:34;;;;;;;;;;;;;;;1.94;100.00;102372.22;2097685;28;31669;-76
2022/12/03 01:33:35;;;;;;;;;;;;;;;1.93;100.00;102370.41;2097784;28;33527;-76
2022/12/03 01:34:37;;;;;;;;;;;;;;;1.94;100.00;102374.88;2097548;28;28513;-76
2022/12/03 01:35:38;;;;;;;;;;;;;;;1.94;100.00;102371.31;2097854;28;19931;-76
2022/12/03 01:36:40;;;;;;;;;;;;;;;1.94;100.00;102377.50;2098028;28;33006;-76
2022/12/03 01:37:41;;;;;;;;;;;;;;;1.93;100.00;102372.16;2096140;28;35474;-76
2022/12/03 01:38:43;;;;;;;;;;;;;;;1.93;100.00;102367.78;2097487;28;20381;-76
2022/12/03 01:39:45;;;;;;;;;;;;;;;1.91;100.00;102375.63;2097496;28;38296;-76
2022/12/03 01:40:48;;;;;;;;;;;;;;;1.91;100.00;102366.81;2088175;28;36971;-76
2022/12/03 01:41:52;;;;;;;;;;;;;;;1.90;100.00;102376.50;2089330;28;19936;-76
2022/12/03 01:42:54;;;;;;;;;;;;;;;1.92;100.00;102376.56;2097402;28;35251;-76
2022/12/03 01:43:57;;;;;;;;;;;;;;;1.91;100.00;102383.56;2097445;28;38970;-76
2022/12/03 01:44:59;;;;;;;;;;;;;;;1.90;100.00;102376.50;2097277;28;29554;-76
2022/12/03 01:46:03;;;;;;;;;;;;;;;1.90;100.00;102371.22;2097607;28;32422;-76
2022/12/03 01:47:09;;;;;;;;;;;;;;;1.89;100.00;102361.47;2097664;28;24675;-76
2022/12/03 01:48:15;;;;;;;;;;;;;;;1.90;100.00;102370.28;2097660;28;35315;-76
2022/12/03 01:49:30;;;;;;;;;;;;;;;1.89;100.00;102372.03;2097319;28;34252;-76
2022/12/03 01:50:34;;;;;;;;;;;;;;;1.88;100.00;102375.56;2097650;28;19924;-76
2022/12/03 01:51:35;;;;;;;;;;;;;;;1.88;100.00;102383.47;2096140;28;33336;-76
2022/12/03 01:52:38;;;;;;;;;;;;;;;1.88;100.00;102366.69;2097394;28;35553;-76
2022/12/03 01:53:43;;;;;;;;;;;;;;;1.87;100.00;102367.56;2097358;28;38138;-76
2022/12/03 01:54:48;;;;;;;;;;;;;;;1.87;100.00;102368.44;2097599;28;36334;-76
2022/12/03 01:55:50;;;;;;;;;;;;;;;1.86;100.00;102369.28;2088807;28;25045;-76
2022/12/03 01:56:53;;;;;;;;;;;;;;;1.85;100.00;102370.16;2088470;28;40421;-76
2022/12/03 01:57:58;;;;;;;;;;;;;;;1.85;100.00;102367.50;2101588;28;19924;-75
2022/12/03 01:59:01;;;;;;;;;;;;;;;1.84;100.00;102370.97;2105238;28;34555;-76
2022/12/03 02:00:04;;;;;;;;;;;;;;;1.84;100.00;102367.44;2104335;28;31324;-76
2022/12/03 02:01:11;;;;;;;;;;;;;;;1.83;100.00;102374.47;2103623;28;39916;-78
2022/12/03 02:02:19;;;;;;;;;;;;;;;1.83;100.00;102369.19;2097236;28;36119;-75
2022/12/03 02:03:24;;;;;;;;;;;;;;;1.83;100.00;102370.91;2098074;28;19929;-76
2022/12/03 02:04:28;;;;;;;;;;;;;;;1.83;100.00;102373.56;2097212;28;31379;-76
2022/12/03 02:05:31;;;;;;;;;;;;;;;1.83;100.00;102377.13;2088201;28;31588;-77
2022/12/03 02:06:33;;;;;;;;;;;;;;;1.82;100.00;102372.66;2089054;28;19929;-74
2022/12/03 02:07:35;;;;;;;;;;;;;;;1.81;100.00;102368.25;2096606;28;36461;-76
2022/12/03 02:08:39;;;;;;;;;;;;;;;1.82;100.00;102371.78;2096562;28;39398;-76
2022/12/03 02:09:41;;;;;;;;;;;;;;;1.79;100.00;102372.53;2097519;28;28767;-75
2022/12/03 02:10:42;;;;;;;;;;;;;;;1.78;100.00;102365.50;2096836;28;40470;-76
2022/12/03 02:11:49;;;;;;;;;;;;;;;1.77;100.00;102368.97;2095556;28;34538;-75
2022/12/03 02:12:58;;;;;;;;;;;;;;;1.76;100.00;102369.81;2097295;28;38360;-76
2022/12/03 02:14:06;;;;;;;;;;;;;;;1.77;100.00;102368.06;2097135;28;40832;-76
2022/12/03 02:15:10;;;;;;;;;;;;;;;1.77;100.00;102370.72;2097678;28;28358;-75
2022/12/03 02:16:11;;;;;;;;;;;;;;;1.75;100.00;102372.41;2095761;28;38904;-76
2022/12/03 02:17:13;;;;;;;;;;;;;;;1.73;100.00;102369.69;2096689;28;37514;-77
2022/12/03 02:18:15;;;;;;;;;;;;;;;1.72;100.00;102373.16;2097906;28;19925;-76
2022/12/03 02:19:28;;;;;;;;;;;;;;;1.70;100.00;102366.94;2097226;28;35430;-76
2022/12/03 02:20:34;;;;;;;;;;;;;;;1.70;100.00;102374.84;2097545;28;29207;-76
2022/12/03 02:22:07;;;;;;;;;;;;;;;1.69;100.00;102359.88;2097559;28;36351;-76
2022/12/03 02:23:49;;;;;;;;;;;;;;;1.68;100.00;102371.28;2097235;28;38163;-76
2022/12/03 02:25:06;;;;;;;;;;;;;;;1.65;100.00;102371.16;2097169;28;29379;-76
2022/12/03 02:26:08;;;;;;;;;;;;;;;1.65;100.00;102368.50;2097896;28;19925;-76
2022/12/03 02:27:10;;;;;;;;;;;;;;;1.64;100.00;102372.00;2096101;28;33161;-76
2022/12/03 02:28:11;;;;;;;;;;;;;;;1.65;100.00;102371.16;2097135;28;31263;-74
2022/12/03 02:29:13;;;;;;;;;;;;;;;1.64;100.00;102364.97;2098043;28;19931;-76
2022/12/03 02:30:18;;;;;;;;;;;;;;;1.63;100.00;102378.13;2097345;28;38365;-77
2022/12/03 02:31:20;;;;;;;;;;;;;;;1.62;100.00;102371.94;2096806;28;31809;-76
2022/12/03 02:32:22;;;;;;;;;;;;;;;1.61;100.00;102372.78;2097424;28;33964;-76
2022/12/03 02:33:24;;;;;;;;;;;;;;;1.60;100.00;102362.16;2096955;28;29245;-76
2022/12/03 02:34:44;;;;;;;;;;;;;;;1.59;100.00;102373.56;2098062;28;19921;-76
2022/12/03 02:35:46;;;;;;;;;;;;;;;1.58;100.00;102361.19;2097191;28;37434;-76
2022/12/03 02:36:47;;;;;;;;;;;;;;;1.57;100.00;102370.88;2096997;28;33042;-76
2022/12/03 02:37:54;;;;;;;;;;;;;;;1.55;100.00;102362.00;2096565;28;35528;-76
2022/12/03 02:38:58;;;;;;;;;;;;;;;1.55;100.00;102376.94;2088190;28;37357;-76
2022/12/03 02:40:06;;;;;;;;;;;;;;;1.53;100.00;102363.69;2088387;28;39169;-76
2022/12/03 02:42:33;;;;;;;;;;;;;;;1.52;100.00;102362.78;2096609;28;20081;-76
2022/12/03 02:42:38;;;;;;;;;;;;;;;1.51;100.00;102376.81;2097303;28;25675;-76
2022/12/03 02:43:39;;;;;;;;;;;;;;;1.50;100.00;102367.09;2097451;28;19928;-74
2022/12/03 02:44:41;;;;;;;;;;;;;;;1.49;100.00;102373.22;2097095;28;34862;-76
2022/12/03 02:45:47;;;;;;;;;;;;;;;1.48;100.00;102370.53;2097462;28;19936;-76
2022/12/03 02:46:49;;;;;;;;;;;;;;;1.47;100.00;102369.66;2096539;28;28723;-77
2022/12/03 02:47:59;;;;;;;;;;;;;;;1.46;100.00;102370.47;2097432;28;20802;-77
2022/12/03 02:49:03;;;;;;;;;;;;;;;1.46;100.00;102388.06;2097983;28;19929;-75
2022/12/03 02:50:05;;;;;;;;;;;;;;;1.45;100.00;102370.41;2096804;28;32997;-74
2022/12/03 02:51:09;;;;;;;;;;;;;;;1.43;100.00;102365.06;2097047;28;32742;-77
2022/12/03 02:52:10;;;;;;;;;;;;;;;1.42;100.00;102384.41;2097033;28;32141;-75
2022/12/03 02:53:16;;;;;;;;;;;;;;;1.42;100.00;102383.47;2096622;28;40543;-77
2022/12/03 02:54:19;;;;;;;;;;;;;;;1.40;99.77;102372.91;2097643;28;20008;-75
2022/12/03 02:55:22;;;;;;;;;;;;;;;1.40;100.00;102375.53;2097297;28;31619;-75
2022/12/03 02:56:30;;;;;;;;;;;;;;;1.39;100.00;102371.09;2096643;28;32370;-75
2022/12/03 02:57:34;;;;;;;;;;;;;;;1.40;100.00;102374.59;2096920;28;36925;-76
2022/12/03 02:58:37;;;;;;;;;;;;;;;1.39;100.00;102381.63;2096743;28;39462;-75
2022/12/03 02:59:39;;;;;;;;;;;;;;;1.38;100.00;102371.91;2096475;28;37670;-76
2022/12/03 03:00:42;;;;;;;;;;;;;;;1.37;99.85;102372.78;2091758;28;34977;-76
2022/12/03 03:01:43;;;;;;;;;;;;;;;1.37;99.75;102377.16;2087627;28;37628;-75
2022/12/03 03:02:46;;;;;;;;;;;;;;;1.36;100.00;102376.22;2089394;28;19929;-76
2022/12/03 03:03:50;;;;;;;;;;;;;;;1.34;100.00;102367.38;2088375;28;31799;-77
2022/12/03 03:04:55;;;;;;;;;;;;;;;1.33;100.00;102376.13;2088504;28;32174;-76
2022/12/03 03:06:01;;;;;;;;;;;;;;;1.32;99.93;102374.34;2089173;28;19925;-76
2022/12/03 03:07:02;;;;;;;;;;;;;;;1.31;100.00;102377.78;2088508;28;36017;-76
2022/12/03 03:08:06;;;;;;;;;;;;;;;1.32;99.68;102376.97;2088786;28;31967;-76
2022/12/03 03:09:08;;;;;;;;;;;;;;;1.31;100.00;102383.06;2089706;28;20028;-77
2022/12/03 03:10:12;;;;;;;;;;;;;;;1.31;100.00;102383.06;2088689;28;34102;-76
2022/12/03 03:11:14;;;;;;;;;;;;;;;1.29;100.00;102377.75;2088938;28;20907;-77
2022/12/03 03:12:16;;;;;;;;;;;;;;;1.28;100.00;102367.16;2087971;28;37585;-76
2022/12/03 03:13:19;;;;;;;;;;;;;;;1.28;100.00;102369.78;2088234;28;36861;-76
2022/12/03 03:14:20;;;;;;;;;;;;;;;1.28;100.00;102375.06;2088633;28;29832;-76
2022/12/03 03:15:23;;;;;;;;;;;;;;;1.27;100.00;102366.22;2088315;28;39330;-77
2022/12/03 03:16:25;;;;;;;;;;;;;;;1.26;100.00;102376.75;2090420;28;29905;-76
2022/12/03 03:17:27;;;;;;;;;;;;;;;1.25;100.00;102367.91;2097410;28;20766;-76
2022/12/03 03:18:29;;;;;;;;;;;;;;;1.25;100.00;102361.75;2095761;28;34921;-76
2022/12/03 03:19:31;;;;;;;;;;;;;;;1.24;100.00;102362.56;2097569;28;19932;-75
2022/12/03 03:20:33;;;;;;;;;;;;;;;1.22;100.00;102378.38;2096414;28;33270;-76
2022/12/03 03:21:37;;;;;;;;;;;;;;;1.24;100.00;102375.75;2096790;28;39744;-76
2022/12/03 03:22:41;;;;;;;;;;;;;;;1.23;100.00;102366.97;2096450;28;35372;-77
2022/12/03 03:23:43;;;;;;;;;;;;;;;1.22;100.00;102359.91;2096580;28;37321;-76
2022/12/03 03:24:46;;;;;;;;;;;;;;;1.22;100.00;102372.16;2097025;28;27170;-74
2022/12/03 03:26:05;;;;;;;;;;;;;;;1.20;100.00;102364.19;2096329;28;36084;-75
2022/12/03 03:27:06;;;;;;;;;;;;;;;1.21;100.00;102357.19;2096597;28;33364;-75
2022/12/03 03:28:09;;;;;;;;;;;;;;;1.20;100.00;102364.19;2097214;28;19916;-75
2022/12/03 03:29:11;;;;;;;;;;;;;;;1.19;100.00;102359.78;2096365;28;39472;-75
2022/12/03 03:30:13;;;;;;;;;;;;;;;1.18;100.00;102354.44;2096337;28;37345;-76
2022/12/03 03:31:19;;;;;;;;;;;;;;;1.18;100.00;102360.59;2096672;28;30866;-75
2022/12/03 03:32:21;;;;;;;;;;;;;;;1.18;100.00;102363.25;2096833;28;34862;-76
2022/12/03 03:33:23;;;;;;;;;;;;;;;1.20;100.00;102363.31;2096761;28;29423;-75
2022/12/03 03:34:26;;;;;;;;;;;;;;;1.18;100.00;102360.59;2097427;28;19924;-75
2022/12/03 03:35:28;;;;;;;;;;;;;;;1.18;100.00;102360.59;2096403;28;39615;-76
2022/12/03 03:36:30;;;;;;;;;;;;;;;1.18;100.00;102360.59;2095891;28;42571;-77
2022/12/03 03:37:32;;;;;;;;;;;;;;;1.18;100.00;102362.34;2096861;28;19928;-74
2022/12/03 03:38:36;;;;;;;;;;;;;;;1.17;100.00;102358.81;2096601;28;32329;-76
2022/12/03 03:39:39;;;;;;;;;;;;;;;1.16;100.00;102357.00;2087944;28;19929;-75
2022/12/03 03:40:41;;;;;;;;;;;;;;;1.15;100.00;102355.22;2088560;28;35976;-77
2022/12/03 03:41:45;;;;;;;;;;;;;;;1.16;100.00;102349.09;2096350;28;34658;-76
2022/12/03 03:42:47;;;;;;;;;;;;;;;1.17;100.00;102352.63;2096281;28;33837;-75
2022/12/03 03:43:51;;;;;;;;;;;;;;;1.16;100.00;102349.09;2097160;28;19925;-74
2022/12/03 03:44:53;;;;;;;;;;;;;;;1.16;100.00;102351.72;2087587;28;35049;-75
2022/12/03 03:45:55;;;;;;;;;;;;;;;1.17;100.00;102355.25;2088130;28;27984;-77
2022/12/03 03:46:57;;;;;;;;;;;;;;;1.17;100.00;102344.72;2096733;28;34534;-77
2022/12/03 03:48:00;;;;;;;;;;;;;;;1.16;100.00;102354.38;2096443;28;31764;-76
2022/12/03 03:49:03;;;;;;;;;;;;;;;1.14;100.00;102351.66;2096920;28;32347;-76
2022/12/03 03:50:09;;;;;;;;;;;;;;;1.17;100.00;102347.34;2096505;28;36446;-76
2022/12/03 03:51:16;;;;;;;;;;;;;;;1.13;100.00;102349.91;2095442;28;38248;-76
2022/12/03 03:52:19;;;;;;;;;;;;;;;1.14;100.00;102354.31;2096522;28;32672;-76
2022/12/03 03:53:22;;;;;;;;;;;;;;;1.14;100.00;102353.41;2096371;28;38161;-76
2022/12/03 03:54:24;;;;;;;;;;;;;;;1.13;99.91;102339.34;2096894;28;20055;-76
2022/12/03 03:55:26;;;;;;;;;;;;;;;1.14;100.00;102348.16;2097367;28;19917;-76
2022/12/03 03:56:28;;;;;;;;;;;;;;;1.13;99.34;102346.34;2096215;28;35133;-76
2022/12/03 03:57:30;;;;;;;;;;;;;;;1.12;99.05;102350.72;2096782;28;28992;-76
2022/12/03 03:58:31;;;;;;;;;;;;;;;1.12;99.65;102350.72;2097225;28;19936;-74
2022/12/03 03:59:35;;;;;;;;;;;;;;;1.13;99.79;102347.25;2096548;28;41442;-76
2022/12/03 04:00:37;;;;;;;;;;;;;;;1.12;100.00;102356.00;2096716;28;31153;-75
2022/12/03 04:01:38;;;;;;;;;;;;;;;1.11;99.59;102354.22;2097288;28;19975;-75
2022/12/03 04:02:40;;;;;;;;;;;;;;;1.11;99.20;102346.31;2096535;28;35896;-75
2022/12/03 04:03:42;;;;;;;;;;;;;;;1.11;100.00;102353.28;2096684;28;37211;-76
2022/12/03 04:04:43;;;;;;;;;;;;;;;1.10;100.00;102352.41;2096556;28;32649;-75
2022/12/03 04:05:46;;;;;;;;;;;;;;;1.11;99.42;102355.94;2096578;28;38660;-75
2022/12/03 04:06:50;;;;;;;;;;;;;;;1.09;99.07;102350.59;2096581;28;33265;-75
2022/12/03 04:07:51;;;;;;;;;;;;;;;1.07;99.90;102352.28;2096677;28;32647;-77
2022/12/03 04:08:53;;;;;;;;;;;;;;;1.05;99.07;102348.69;2087963;28;20809;-76
2022/12/03 04:09:57;;;;;;;;;;;;;;;1.06;100.00;102347.84;2088159;28;35489;-77
2022/12/03 04:13:39;;;;;;;;;;;;;;;1.04;99.19;102353.88;2097250;28;32308;-76
2022/12/03 04:14:40;;;;;;;;;;;;;;;1.02;100.00;102350.31;2098587;28;20262;-76
2022/12/03 04:15:42;;;;;;;;;;;;;;;1.02;99.41;102353.81;2098550;28;20936;-76
2022/12/03 04:16:43;;;;;;;;;;;;;;;1.01;100.00;102346.78;2098265;28;36330;-76
2022/12/03 04:18:41;;;;;;;;;;;;;;;1.02;99.80;102348.56;2098078;28;37483;-76
2022/12/03 04:19:06;;;;;;;;;;;;;;;1.01;98.72;102346.78;2098056;28;39885;-77
2022/12/03 04:20:08;;;;;;;;;;;;;;;1.00;98.26;102352.88;2098700;28;19928;-76
2022/12/03 04:22:38;;;;;;;;;;;;;;;0.98;98.67;102351.91;2097038;28;36344;-76
2022/12/03 04:23:40;;;;;;;;;;;;;;;0.98;98.63;102362.47;2098009;28;35904;-76
2022/12/03 04:24:42;;;;;;;;;;;;;;;0.98;99.09;102356.31;2098247;28;38432;-76
2022/12/03 04:29:45;;;;;;;;;;;;;;;0.94;98.82;102355.28;2097825;28;40563;-76
2022/12/03 04:30:47;;;;;;;;;;;;;;;0.93;99.09;102351.75;2097991;28;38698;-76
2022/12/03 04:35:50;;;;;;;;;;;;;;;0.90;97.83;102353.38;2098040;28;35671;-76
2022/12/03 04:36:51;;;;;;;;;;;;;;;0.89;97.72;102365.63;2097969;28;37549;-76
2022/12/03 04:37:53;;;;;;;;;;;;;;;0.87;97.50;102353.25;2097646;28;30515;-76
2022/12/03 04:38:54;;;;;;;;;;;;;;;0.87;97.16;102355.88;2096387;28;39655;-76
2022/12/03 04:39:56;;;;;;;;;;;;;;;0.86;97.27;102356.72;2097898;28;39150;-76
2022/12/03 04:41:00;;;;;;;;;;;;;;;0.86;98.09;102357.63;2098496;28;31740;-76
2022/12/03 04:42:05;;;;;;;;;;;;;;;0.86;98.23;102356.72;2097638;28;31706;-76
2022/12/03 04:43:06;;;;;;;;;;;;;;;0.85;97.41;102366.38;2088617;28;35805;-76
2022/12/03 04:45:28;;;;;;;;;;;;;;;0.83;98.12;102367.16;2098009;28;37930;-75
2022/12/03 04:46:30;;;;;;;;;;;;;;;0.82;97.20;102362.72;2097560;28;19917;-76
2022/12/03 04:47:31;;;;;;;;;;;;;;;0.80;98.06;102362.63;2088970;28;35061;-76
2022/12/03 04:48:39;;;;;;;;;;;;;;;0.79;97.81;102374.03;2089799;28;31313;-76
2022/12/03 04:49:44;;;;;;;;;;;;;;;0.78;97.13;102372.22;2098025;28;30006;-76
2022/12/03 04:50:45;;;;;;;;;;;;;;;0.78;97.76;102363.44;2097670;28;40616;-76
2022/12/03 04:51:47;;;;;;;;;;;;;;;0.79;97.87;102368.78;2098586;28;19921;-76
2022/12/03 04:52:48;;;;;;;;;;;;;;;0.76;97.09;102371.28;2102594;28;40352;-76
2022/12/03 04:53:50;;;;;;;;;;;;;;;0.75;98.02;102353.63;2106090;28;35626;-76
2022/12/03 04:54:51;;;;;;;;;;;;;;;0.73;97.52;102361.47;2106178;28;19924;-76
2022/12/03 04:55:53;;;;;;;;;;;;;;;0.74;97.78;102375.59;2104796;28;30749;-76
2022/12/03 04:56:55;;;;;;;;;;;;;;;0.73;97.72;102366.75;2096756;28;39045;-75
2022/12/03 04:57:57;;;;;;;;;;;;;;;0.71;97.73;102368.44;2098545;28;19932;-76
2022/12/03 04:58:59;;;;;;;;;;;;;;;0.70;97.24;102371.00;2097770;28;30872;-76
2022/12/03 05:00:03;;;;;;;;;;;;;;;0.69;97.56;102364.84;2098335;28;19929;-76
2022/12/03 05:01:04;;;;;;;;;;;;;;;0.68;97.50;102363.06;2098437;28;19952;-76
2022/12/03 05:02:06;;;;;;;;;;;;;;;0.67;97.99;102371.78;2097670;28;36495;-76
2022/12/03 05:03:08;;;;;;;;;;;;;;;0.67;97.92;102368.28;2097418;28;37677;-76
2022/12/03 05:04:11;;;;;;;;;;;;;;;0.66;97.93;102363.81;2098658;28;19925;-76
2022/12/03 05:05:13;;;;;;;;;;;;;;;0.65;97.32;102359.41;2097301;28;38567;-76
2022/12/03 05:06:14;;;;;;;;;;;;;;;0.64;97.10;102361.13;2088572;28;37693;-76
2022/12/03 05:07:16;;;;;;;;;;;;;;;0.63;97.27;102354.06;2087680;28;32031;-75
2022/12/03 05:08:17;;;;;;;;;;;;;;;0.62;96.92;102357.53;2097895;28;32539;-75
2022/12/03 05:09:19;;;;;;;;;;;;;;;0.60;96.93;102351.28;2097474;28;37677;-76
2022/12/03 05:10:21;;;;;;;;;;;;;;;0.59;97.72;102354.75;2098062;28;29555;-76
2022/12/03 05:11:22;;;;;;;;;;;;;;;0.58;96.69;102352.97;2097598;28;35080;-76
2022/12/03 05:12:24;;;;;;;;;;;;;;;0.56;97.14;102355.53;2088238;28;33897;-75
2022/12/03 05:13:25;;;;;;;;;;;;;;;0.55;97.79;102361.63;2088387;28;38932;-76
2022/12/03 05:14:27;;;;;;;;;;;;;;;0.54;97.22;102359.84;2098048;28;30836;-75
2022/12/03 05:15:28;;;;;;;;;;;;;;;0.52;97.61;102351.00;2097673;28;37117;-76
2022/12/03 05:16:32;;;;;;;;;;;;;;;0.52;98.20;102372.06;2097741;28;33381;-76
2022/12/03 05:17:34;;;;;;;;;;;;;;;0.51;97.66;102370.25;2098045;28;19925;-76
2022/12/03 05:18:38;;;;;;;;;;;;;;;0.51;98.17;102356.19;2097846;28;33591;-76
2022/12/03 05:21:00;;;;;;;;;;;;;;;0.48;98.38;102353.44;2098440;28;19968;-76
2022/12/03 05:22:01;;;;;;;;;;;;;;;0.45;97.88;102359.47;2097093;28;40649;-76
2022/12/03 05:23:03;;;;;;;;;;;;;;;0.46;98.35;102349.84;2097312;28;37239;-76
2022/12/03 05:24:05;;;;;;;;;;;;;;;0.44;98.24;102355.03;2097680;28;32741;-76
2022/12/03 05:25:07;;;;;;;;;;;;;;;0.43;98.89;102349.69;2097426;28;40607;-76
2022/12/03 05:26:08;;;;;;;;;;;;;;;0.44;98.50;102359.41;2097704;28;37071;-75
2022/12/03 05:27:10;;;;;;;;;;;;;;;0.43;98.94;102357.59;2096303;28;29848;-76
2022/12/03 05:28:11;;;;;;;;;;;;;;;0.42;98.28;102361.09;2097592;28;34978;-76
2022/12/03 05:29:13;;;;;;;;;;;;;;;0.41;99.04;102361.91;2098236;28;19924;-76
2022/12/03 05:30:15;;;;;;;;;;;;;;;0.41;98.73;102369.81;2097358;28;40209;-75
2022/12/03 05:31:16;;;;;;;;;;;;;;;0.41;98.91;102356.63;2098374;28;20805;-76
2022/12/03 05:32:18;;;;;;;;;;;;;;;0.40;98.86;102363.66;2097107;28;37473;-76
2022/12/03 05:33:20;;;;;;;;;;;;;;;0.42;99.31;102358.47;2097382;28;34456;-76
2022/12/03 05:34:21;;;;;;;;;;;;;;;0.40;98.94;102358.38;2097393;28;35374;-75
2022/12/03 05:35:24;;;;;;;;;;;;;;;0.39;99.50;102359.22;2097506;28;38114;-76
2022/12/03 05:36:25;;;;;;;;;;;;;;;0.39;99.64;102359.22;2098315;28;20769;-76
2022/12/03 05:37:27;;;;;;;;;;;;;;;0.38;99.13;102353.06;2097222;28;19925;-76
2022/12/03 05:38:28;;;;;;;;;;;;;;;0.37;98.49;102355.63;2087976;28;40752;-75
2022/12/03 05:39:30;;;;;;;;;;;;;;;0.38;98.97;102355.69;2088923;28;32368;-75
2022/12/03 05:40:31;;;;;;;;;;;;;;;0.38;99.02;102362.69;2098099;28;19936;-76
2022/12/03 05:42:53;;;;;;;;;;;;;;;0.36;98.80;102353.84;2097439;28;36252;-75